Flugplatz Norvenich Airport

Bericht für ETNN

vom 15.10. um 07:20 UTC

Wind 2 kt aus 270°

Sichtweite 10 km oder mehr

aufgebrochene Bewölkung in 5000 ft

aufgebrochene Bewölkung in 11000 ft

Temperatur 14.0°C

Taupunkt 12.0°C

Luftfeuchtigkeit 88%

Luftdruck 1007 hPa

ETNN 150720Z 27002KT 9999 BKN050 BKN110 14/12 Q1007 BLU BLU TEMPO GRN

Prognose für ETNN

vom 15.10. um 00:00 UTC

Zwischen 00:00 UTC und 00:00 UTC

Wind 8 kt aus 200°

Sichtweite 10 km oder mehr

keine signifikanten Wettererscheinungen

aufgelockert bewölkt in 3000 ft

aufgebrochene Bewölkung in 8000 ft


Zwischen 00:00 UTC und 00:00 UTC zeitweise

Wind 12 kt aus 240°

Sichtweite 4000 m

Regenschauer

aufgebrochene Bewölkung in 1000 ft

aufgebrochene Bewölkung in 2000 ft

TAF ETNN 150725Z 1508/1517 20008KT 9999 NSW SCT030 BKN080 TEMPO 1508/1517 24012KT 4000 SHRA BKN010 BKN020TCU BY ETGL
Impressum